sensor_id;sensor_type;location;lat;lon;timestamp;pressure;altitude;pressure_sealevel;temperature;humidity
19128;BME280;9696;53.686;10.094;2023-04-08T00:00:08;102164.53;;;5.85;100.00
19128;BME280;9696;53.686;10.094;2023-04-08T00:02:39;102155.78;;;5.87;100.00
19128;BME280;9696;53.686;10.094;2023-04-08T00:05:10;102154.38;;;5.79;100.00
19128;BME280;9696;53.686;10.094;2023-04-08T00:07:40;102158.50;;;5.84;100.00
19128;BME280;9696;53.686;10.094;2023-04-08T00:10:09;102154.38;;;5.79;100.00
19128;BME280;9696;53.686;10.094;2023-04-08T00:12:38;102153.88;;;5.91;100.00
19128;BME280;9696;53.686;10.094;2023-04-08T00:15:08;102159.41;;;5.83;100.00
19128;BME280;9696;53.686;10.094;2023-04-08T00:17:37;102164.09;;;5.95;100.00
19128;BME280;9696;53.686;10.094;2023-04-08T00:20:07;102169.72;;;5.85;100.00
19128;BME280;9696;53.686;10.094;2023-04-08T00:22:37;102169.66;;;5.88;100.00
19128;BME280;9696;53.686;10.094;2023-04-08T00:25:08;102173.88;;;6.09;100.00
19128;BME280;9696;53.686;10.094;2023-04-08T00:27:37;102169.16;;;5.98;100.00
19128;BME280;9696;53.686;10.094;2023-04-08T00:30:07;102178.09;;;5.93;100.00
19128;BME280;9696;53.686;10.094;2023-04-08T00:32:37;102176.28;;;5.95;100.00
19128;BME280;9696;53.686;10.094;2023-04-08T00:35:07;102170.72;;;5.82;100.00
19128;BME280;9696;53.686;10.094;2023-04-08T00:37:37;102171.56;;;5.83;100.00
19128;BME280;9696;53.686;10.094;2023-04-08T00:40:08;102181.41;;;5.76;100.00
19128;BME280;9696;53.686;10.094;2023-04-08T00:42:37;102175.22;;;5.79;100.00
19128;BME280;9696;53.686;10.094;2023-04-08T00:45:08;102168.13;;;5.82;100.00
19128;BME280;9696;53.686;10.094;2023-04-08T00:47:37;102179.00;;;5.72;100.00
19128;BME280;9696;53.686;10.094;2023-04-08T00:50:08;102176.53;;;5.68;100.00
19128;BME280;9696;53.686;10.094;2023-04-08T00:52:38;102174.47;;;5.77;100.00
19128;BME280;9696;53.686;10.094;2023-04-08T00:55:09;102172.94;;;5.71;100.00
19128;BME280;9696;53.686;10.094;2023-04-08T00:57:38;102176.97;;;5.78;100.00
19128;BME280;9696;53.686;10.094;2023-04-08T01:00:09;102171.72;;;5.59;100.00
19128;BME280;9696;53.686;10.094;2023-04-08T01:02:44;102177.25;;;5.52;100.00
19128;BME280;9696;53.686;10.094;2023-04-08T01:05:18;102173.13;;;5.66;100.00
19128;BME280;9696;53.686;10.094;2023-04-08T01:07:49;102181.00;;;5.65;100.00
19128;BME280;9696;53.686;10.094;2023-04-08T01:10:22;102183.09;;;5.77;100.00
19128;BME280;9696;53.686;10.094;2023-04-08T01:12:56;102174.66;;;5.72;100.00
19128;BME280;9696;53.686;10.094;2023-04-08T01:15:27;102179.72;;;5.75;100.00
19128;BME280;9696;53.686;10.094;2023-04-08T01:17:58;102177.13;;;5.75;100.00
19128;BME280;9696;53.686;10.094;2023-04-08T01:20:29;102187.19;;;5.62;100.00
19128;BME280;9696;53.686;10.094;2023-04-08T01:23:06;102182.31;;;5.75;100.00
19128;BME280;9696;53.686;10.094;2023-04-08T01:25:47;102176.97;;;5.78;100.00
19128;BME280;9696;53.686;10.094;2023-04-08T01:28:18;102179.91;;;5.70;100.00
19128;BME280;9696;53.686;10.094;2023-04-08T01:30:49;102184.88;;;5.77;100.00
19128;BME280;9696;53.686;10.094;2023-04-08T01:33:19;102180.63;;;5.74;100.00
19128;BME280;9696;53.686;10.094;2023-04-08T01:35:51;102177.97;;;5.76;100.00
19128;BME280;9696;53.686;10.094;2023-04-08T01:38:23;102172.09;;;5.70;100.00
19128;BME280;9696;53.686;10.094;2023-04-08T01:40:55;102175.78;;;5.65;100.00
19128;BME280;9696;53.686;10.094;2023-04-08T01:43:26;102174.00;;;5.67;100.00
19128;BME280;9696;53.686;10.094;2023-04-08T01:45:56;102171.38;;;5.67;100.00
19128;BME280;9696;53.686;10.094;2023-04-08T01:48:26;102175.34;;;5.76;100.00
19128;BME280;9696;53.686;10.094;2023-04-08T01:50:56;102176.25;;;5.75;100.00
19128;BME280;9696;53.686;10.094;2023-04-08T01:53:26;102176.84;;;5.61;100.00
19128;BME280;9696;53.686;10.094;2023-04-08T01:56:00;102172.38;;;5.64;100.00
19128;BME280;9696;53.686;10.094;2023-04-08T01:58:36;102172.56;;;5.60;100.00
19128;BME280;9696;53.686;10.094;2023-04-08T02:01:09;102170.88;;;5.59;100.00
19128;BME280;9696;53.686;10.094;2023-04-08T02:03:41;102167.22;;;5.63;100.00
19128;BME280;9696;53.686;10.094;2023-04-08T02:06:13;102166.88;;;5.70;100.00
19128;BME280;9696;53.686;10.094;2023-04-08T02:08:43;102162.72;;;5.66;100.00
19128;BME280;9696;53.686;10.094;2023-04-08T02:11:14;102157.84;;;5.59;100.00
19128;BME280;9696;53.686;10.094;2023-04-08T02:13:43;102154.16;;;5.64;100.00
19128;BME280;9696;53.686;10.094;2023-04-08T02:16:17;102154.00;;;5.67;100.00
19128;BME280;9696;53.686;10.094;2023-04-08T02:18:56;102152.50;;;5.62;100.00
19128;BME280;9696;53.686;10.094;2023-04-08T02:21:30;102153.22;;;5.65;100.00
19128;BME280;9696;53.686;10.094;2023-04-08T02:24:05;102159.28;;;5.66;100.00
19128;BME280;9696;53.686;10.094;2023-04-08T02:26:38;102158.91;;;5.55;100.00
19128;BME280;9696;53.686;10.094;2023-04-08T02:29:11;102151.75;;;5.60;100.00
19128;BME280;9696;53.686;10.094;2023-04-08T02:31:41;102152.66;;;5.59;100.00
19128;BME280;9696;53.686;10.094;2023-04-08T02:34:14;102155.38;;;5.56;100.00
19128;BME280;9696;53.686;10.094;2023-04-08T02:36:43;102153.31;;;5.64;100.00
19128;BME280;9696;53.686;10.094;2023-04-08T02:39:16;102143.22;;;5.56;100.00
19128;BME280;9696;53.686;10.094;2023-04-08T02:41:50;102155.44;;;5.54;100.00
19128;BME280;9696;53.686;10.094;2023-04-08T02:44:21;102150.25;;;5.54;100.00
19128;BME280;9696;53.686;10.094;2023-04-08T02:46:50;102160.00;;;5.49;100.00
19128;BME280;9696;53.686;10.094;2023-04-08T02:49:19;102155.44;;;5.54;100.00
19128;BME280;9696;53.686;10.094;2023-04-08T02:51:48;102157.84;;;5.59;100.00
19128;BME280;9696;53.686;10.094;2023-04-08T02:54:18;102163.00;;;5.60;100.00
19128;BME280;9696;53.686;10.094;2023-04-08T02:56:49;102165.47;;;5.43;100.00
19128;BME280;9696;53.686;10.094;2023-04-08T02:59:18;102167.41;;;5.58;100.00
19128;BME280;9696;53.686;10.094;2023-04-08T03:01:47;102166.13;;;5.48;100.00
19128;BME280;9696;53.686;10.094;2023-04-08T03:04:16;102163.00;;;5.40;100.00
19128;BME280;9696;53.686;10.094;2023-04-08T03:06:45;102170.22;;;5.54;100.00
19128;BME280;9696;53.686;10.094;2023-04-08T03:09:14;102179.19;;;5.47;100.00
19128;BME280;9696;53.686;10.094;2023-04-08T03:11:43;102168.38;;;5.36;100.00
19128;BME280;9696;53.686;10.094;2023-04-08T03:14:20;102177.50;;;5.46;100.00
19128;BME280;9696;53.686;10.094;2023-04-08T03:16:49;102172.19;;;5.49;100.00
19128;BME280;9696;53.686;10.094;2023-04-08T03:19:18;102179.66;;;5.56;100.00
19128;BME280;9696;53.686;10.094;2023-04-08T03:21:48;102190.78;;;5.40;100.00
19128;BME280;9696;53.686;10.094;2023-04-08T03:24:17;102183.41;;;5.29;100.00
19128;BME280;9696;53.686;10.094;2023-04-08T03:26:46;102193.41;;;5.38;100.00
19128;BME280;9696;53.686;10.094;2023-04-08T03:29:15;102190.78;;;5.40;100.00
19128;BME280;9696;53.686;10.094;2023-04-08T03:31:46;102197.88;;;5.36;100.00
19128;BME280;9696;53.686;10.094;2023-04-08T03:34:15;102202.41;;;5.31;100.00
19128;BME280;9696;53.686;10.094;2023-04-08T03:36:44;102202.00;;;5.20;100.00
19128;BME280;9696;53.686;10.094;2023-04-08T03:39:13;102204.47;;;5.23;100.00
19128;BME280;9696;53.686;10.094;2023-04-08T03:41:42;102205.50;;;5.19;100.00
19128;BME280;9696;53.686;10.094;2023-04-08T03:44:11;102211.81;;;5.13;100.00
19128;BME280;9696;53.686;10.094;2023-04-08T03:46:41;102208.63;;;5.27;100.00
19128;BME280;9696;53.686;10.094;2023-04-08T03:49:11;102209.72;;;5.21;100.00
19128;BME280;9696;53.686;10.094;2023-04-08T03:51:41;102199.53;;;5.17;100.00
19128;BME280;9696;53.686;10.094;2023-04-08T03:54:10;102209.44;;;5.07;100.00
19128;BME280;9696;53.686;10.094;2023-04-08T03:56:39;102212.38;;;4.98;100.00
19128;BME280;9696;53.686;10.094;2023-04-08T03:59:08;102213.44;;;5.16;100.00
19128;BME280;9696;53.686;10.094;2023-04-08T04:01:37;102212.56;;;5.15;100.00
19128;BME280;9696;53.686;10.094;2023-04-08T04:04:08;102215.03;;;5.18;100.00
19128;BME280;9696;53.686;10.094;2023-04-08T04:06:39;102215.50;;;5.08;100.00
19128;BME280;9696;53.686;10.094;2023-04-08T04:09:08;102215.34;;;5.11;100.00
19128;BME280;9696;53.686;10.094;2023-04-08T04:11:38;102217.91;;;5.12;100.00
19128;BME280;9696;53.686;10.094;2023-04-08T04:14:07;102225.09;;;5.06;100.00
19128;BME280;9696;53.686;10.094;2023-04-08T04:16:36;102215.44;;;5.09;100.00
19128;BME280;9696;53.686;10.094;2023-04-08T04:19:05;102219.63;;;5.13;100.00
19128;BME280;9696;53.686;10.094;2023-04-08T04:21:34;102225.34;;;5.00;100.00
19128;BME280;9696;53.686;10.094;2023-04-08T04:24:05;102215.03;;;5.18;100.00
19128;BME280;9696;53.686;10.094;2023-04-08T04:26:34;102229.69;;;4.99;100.00
19128;BME280;9696;53.686;10.094;2023-04-08T04:29:03;102224.72;;;5.15;100.00
19128;BME280;9696;53.686;10.094;2023-04-08T04:31:32;102229.94;;;5.15;100.00
19128;BME280;9696;53.686;10.094;2023-04-08T04:34:01;102228.34;;;5.11;100.00
19128;BME280;9696;53.686;10.094;2023-04-08T04:36:31;102227.94;;;5.00;100.00
19128;BME280;9696;53.686;10.094;2023-04-08T04:39:00;102236.13;;;5.12;100.00
19128;BME280;9696;53.686;10.094;2023-04-08T04:41:30;102237.19;;;5.07;100.00
19128;BME280;9696;53.686;10.094;2023-04-08T04:43:59;102242.94;;;5.15;100.00
19128;BME280;9696;53.686;10.094;2023-04-08T04:46:29;102237.59;;;5.18;100.00
19128;BME280;9696;53.686;10.094;2023-04-08T04:48:58;102249.97;;;5.13;100.00
19128;BME280;9696;53.686;10.094;2023-04-08T04:51:27;102247.28;;;5.14;100.00
19128;BME280;9696;53.686;10.094;2023-04-08T04:53:58;102246.56;;;5.11;100.00
19128;BME280;9696;53.686;10.094;2023-04-08T04:56:27;102254.44;;;5.09;100.00
19128;BME280;9696;53.686;10.094;2023-04-08T04:58:58;102251.94;;;5.06;100.00
19128;BME280;9696;53.686;10.094;2023-04-08T05:01:27;102258.97;;;5.04;100.00
19128;BME280;9696;53.686;10.094;2023-04-08T05:03:56;102261.69;;;5.01;100.00
19128;BME280;9696;53.686;10.094;2023-04-08T05:06:26;102268.94;;;5.15;100.00
19128;BME280;9696;53.686;10.094;2023-04-08T05:08:55;102274.75;;;5.00;100.00
19128;BME280;9696;53.686;10.094;2023-04-08T05:11:24;102269.78;;;5.15;100.00
19128;BME280;9696;53.686;10.094;2023-04-08T05:13:53;102273.56;;;5.08;100.00
19128;BME280;9696;53.686;10.094;2023-04-08T05:16:24;102265.50;;;4.93;100.00
19128;BME280;9696;53.686;10.094;2023-04-08T05:18:53;102279.25;;;4.95;100.00
19128;BME280;9696;53.686;10.094;2023-04-08T05:21:23;102282.66;;;5.18;100.00
19128;BME280;9696;53.686;10.094;2023-04-08T05:23:52;102273.25;;;5.16;100.00
19128;BME280;9696;53.686;10.094;2023-04-08T05:26:22;102286.56;;;5.08;100.00
19128;BME280;9696;53.686;10.094;2023-04-08T05:28:51;102284.59;;;4.92;100.00
19128;BME280;9696;53.686;10.094;2023-04-08T05:31:20;102289.84;;;5.13;100.00
19128;BME280;9696;53.686;10.094;2023-04-08T05:33:50;102280.38;;;4.89;100.00
19128;BME280;9696;53.686;10.094;2023-04-08T05:36:20;102283.06;;;4.86;100.00
19128;BME280;9696;53.686;10.094;2023-04-08T05:38:49;102282.41;;;5.03;100.00
19128;BME280;9696;53.686;10.094;2023-04-08T05:41:18;102289.03;;;5.11;100.00
19128;BME280;9696;53.686;10.094;2023-04-08T05:43:48;102291.03;;;5.05;100.00
19128;BME280;9696;53.686;10.094;2023-04-08T05:46:17;102292.91;;;5.01;100.00
19128;BME280;9696;53.686;10.094;2023-04-08T05:48:46;102290.19;;;5.04;100.00
19128;BME280;9696;53.686;10.094;2023-04-08T05:51:17;102292.59;;;5.09;100.00
19128;BME280;9696;53.686;10.094;2023-04-08T05:53:46;102293.88;;;5.20;100.00
19128;BME280;9696;53.686;10.094;2023-04-08T05:56:15;102291.75;;;5.30;100.00
19128;BME280;9696;53.686;10.094;2023-04-08T05:58:44;102291.69;;;5.32;100.00
19128;BME280;9696;53.686;10.094;2023-04-08T06:01:13;102291.69;;;5.32;100.00
19128;BME280;9696;53.686;10.094;2023-04-08T06:03:42;102292.97;;;5.43;100.00
19128;BME280;9696;53.686;10.094;2023-04-08T06:06:12;102292.16;;;5.41;100.00
19128;BME280;9696;53.686;10.094;2023-04-08T06:08:43;102307.78;;;5.41;100.00
19128;BME280;9696;53.686;10.094;2023-04-08T06:11:21;102309.44;;;5.44;100.00
19128;BME280;9696;53.686;10.094;2023-04-08T06:13:50;102305.91;;;5.23;100.00
19128;BME280;9696;53.686;10.094;2023-04-08T06:16:20;102315.03;;;5.11;100.00
19128;BME280;9696;53.686;10.094;2023-04-08T06:18:49;102311.16;;;5.21;100.00
19128;BME280;9696;53.686;10.094;2023-04-08T06:21:19;102327.28;;;5.31;100.00
19128;BME280;9696;53.686;10.094;2023-04-08T06:23:49;102315.88;;;5.34;100.00
19128;BME280;9696;53.686;10.094;2023-04-08T06:26:19;102324.72;;;5.30;100.00
19128;BME280;9696;53.686;10.094;2023-04-08T06:28:48;102322.53;;;5.19;100.00
19128;BME280;9696;53.686;10.094;2023-04-08T06:31:18;102321.78;;;5.17;100.00
19128;BME280;9696;53.686;10.094;2023-04-08T06:33:47;102332.38;;;5.11;100.00
19128;BME280;9696;53.686;10.094;2023-04-08T06:36:22;102328.91;;;5.34;100.00
19128;BME280;9696;53.686;10.094;2023-04-08T06:38:52;102324.28;;;5.18;100.00
19128;BME280;9696;53.686;10.094;2023-04-08T06:41:22;102333.56;;;5.02;100.00
19128;BME280;9696;53.686;10.094;2023-04-08T06:44:03;102338.50;;;5.10;100.00
19128;BME280;9696;53.686;10.094;2023-04-08T06:46:32;102346.97;;;5.15;100.00
19128;BME280;9696;53.686;10.094;2023-04-08T06:49:21;102346.06;;;5.16;100.00
19128;BME280;9696;53.686;10.094;2023-04-08T06:51:53;102353.06;;;5.14;100.00
19128;BME280;9696;53.686;10.094;2023-04-08T06:54:24;102349.75;;;5.10;100.00
19128;BME280;9696;53.686;10.094;2023-04-08T06:56:53;102358.09;;;5.18;100.00
19128;BME280;9696;53.686;10.094;2023-04-08T06:59:22;102360.38;;;5.04;100.00
19128;BME280;9696;53.686;10.094;2023-04-08T07:01:51;102353.53;;;5.25;100.00
19128;BME280;9696;53.686;10.094;2023-04-08T07:04:21;102359.56;;;5.26;100.00
19128;BME280;9696;53.686;10.094;2023-04-08T07:06:50;102368.13;;;5.29;100.00
19128;BME280;9696;53.686;10.094;2023-04-08T07:09:19;102365.94;;;5.40;100.00
19128;BME280;9696;53.686;10.094;2023-04-08T07:11:50;102362.41;;;5.19;100.00
19128;BME280;9696;53.686;10.094;2023-04-08T07:14:19;102369.19;;;5.23;100.00
19128;BME280;9696;53.686;10.094;2023-04-08T07:16:48;102370.94;;;5.23;100.00
19128;BME280;9696;53.686;10.094;2023-04-08T07:19:18;102373.81;;;5.39;100.00
19128;BME280;9696;53.686;10.094;2023-04-08T07:21:47;102370.72;;;5.29;100.00
19128;BME280;9696;53.686;10.094;2023-04-08T07:24:17;102366.75;;;5.19;100.00
19128;BME280;9696;53.686;10.094;2023-04-08T07:26:46;102373.31;;;5.06;100.00
19128;BME280;9696;53.686;10.094;2023-04-08T07:29:17;102374.94;;;5.32;100.00
19128;BME280;9696;53.686;10.094;2023-04-08T07:31:46;102372.28;;;5.10;100.00
19128;BME280;9696;53.686;10.094;2023-04-08T07:34:15;102384.56;;;5.30;100.00
19128;BME280;9696;53.686;10.094;2023-04-08T07:36:44;102380.78;;;5.15;100.00
19128;BME280;9696;53.686;10.094;2023-04-08T07:39:14;102381.88;;;5.09;100.00
19128;BME280;9696;53.686;10.094;2023-04-08T07:41:43;102379.56;;;5.25;100.00
19128;BME280;9696;53.686;10.094;2023-04-08T07:44:12;102382.88;;;5.29;100.00
19128;BME280;9696;53.686;10.094;2023-04-08T07:46:45;102390.22;;;5.41;100.00
19128;BME280;9696;53.686;10.094;2023-04-08T07:49:18;102385.06;;;5.39;100.00
19128;BME280;9696;53.686;10.094;2023-04-08T07:51:47;102392.81;;;5.41;100.00
19128;BME280;9696;53.686;10.094;2023-04-08T07:54:16;102396.31;;;5.40;100.00
19128;BME280;9696;53.686;10.094;2023-04-08T07:56:45;102386.28;;;5.52;100.00
19128;BME280;9696;53.686;10.094;2023-04-08T07:59:14;102395.59;;;5.58;100.00
19128;BME280;9696;53.686;10.094;2023-04-08T08:01:45;102407.28;;;5.48;100.00
19128;BME280;9696;53.686;10.094;2023-04-08T08:04:14;102405.88;;;5.39;100.00
19128;BME280;9696;53.686;10.094;2023-04-08T08:06:43;102413.19;;;5.53;100.00
19128;BME280;9696;53.686;10.094;2023-04-08T08:09:13;102413.06;;;5.56;100.00
19128;BME280;9696;53.686;10.094;2023-04-08T08:11:42;102415.00;;;5.73;100.00
19128;BME280;9696;53.686;10.094;2023-04-08T08:14:11;102412.50;;;5.48;100.00
19128;BME280;9696;53.686;10.094;2023-04-08T08:16:40;102420.72;;;5.59;100.00
19128;BME280;9696;53.686;10.094;2023-04-08T08:19:12;102422.13;;;5.67;100.00
19128;BME280;9696;53.686;10.094;2023-04-08T08:21:41;102418.19;;;5.79;100.00
19128;BME280;9696;53.686;10.094;2023-04-08T08:24:10;102419.22;;;5.75;100.00
19128;BME280;9696;53.686;10.094;2023-04-08T08:26:40;102419.50;;;5.91;100.00
19128;BME280;9696;53.686;10.094;2023-04-08T08:29:09;102415.47;;;5.82;100.00
19128;BME280;9696;53.686;10.094;2023-04-08T08:31:45;102417.25;;;6.03;100.00
19128;BME280;9696;53.686;10.094;2023-04-08T08:34:16;102419.50;;;5.91;100.00
19128;BME280;9696;53.686;10.094;2023-04-08T08:36:46;102431.50;;;5.95;100.00
19128;BME280;9696;53.686;10.094;2023-04-08T08:39:15;102425.88;;;5.82;100.00
19128;BME280;9696;53.686;10.094;2023-04-08T08:41:44;102425.13;;;5.80;100.00
19128;BME280;9696;53.686;10.094;2023-04-08T08:44:13;102425.75;;;5.85;100.00
19128;BME280;9696;53.686;10.094;2023-04-08T08:46:43;102430.91;;;5.88;100.00
19128;BME280;9696;53.686;10.094;2023-04-08T08:49:13;102428.31;;;6.08;100.00
19128;BME280;9696;53.686;10.094;2023-04-08T08:51:45;102432.25;;;6.19;100.00
19128;BME280;9696;53.686;10.094;2023-04-08T08:54:15;102430.59;;;5.96;100.00
19128;BME280;9696;53.686;10.094;2023-04-08T08:56:44;102435.72;;;6.19;100.00
19128;BME280;9696;53.686;10.094;2023-04-08T08:59:13;102436.94;;;6.10;100.00
19128;BME280;9696;53.686;10.094;2023-04-08T09:01:42;102436.09;;;6.10;100.00
19128;BME280;9696;53.686;10.094;2023-04-08T09:04:13;102428.84;;;6.38;100.00
19128;BME280;9696;53.686;10.094;2023-04-08T09:06:46;102433.16;;;6.18;100.00
19128;BME280;9696;53.686;10.094;2023-04-08T09:09:17;102431.78;;;6.51;100.00
19128;BME280;9696;53.686;10.094;2023-04-08T09:11:46;102438.22;;;6.42;100.00
19128;BME280;9696;53.686;10.094;2023-04-08T09:14:20;102434.25;;;6.74;100.00
19128;BME280;9696;53.686;10.094;2023-04-08T09:16:49;102428.47;;;6.47;100.00
19128;BME280;9696;53.686;10.094;2023-04-08T09:19:19;102440.47;;;6.30;100.00
19128;BME280;9696;53.686;10.094;2023-04-08T09:22:05;102440.97;;;6.39;100.00
19128;BME280;9696;53.686;10.094;2023-04-08T09:24:36;102438.94;;;6.46;100.00
19128;BME280;9696;53.686;10.094;2023-04-08T09:27:05;102455.56;;;6.43;100.00
19128;BME280;9696;53.686;10.094;2023-04-08T09:29:34;102454.72;;;6.63;100.00
19128;BME280;9696;53.686;10.094;2023-04-08T09:32:06;102450.59;;;6.57;100.00
19128;BME280;9696;53.686;10.094;2023-04-08T09:34:35;102454.41;;;6.71;100.00
19128;BME280;9696;53.686;10.094;2023-04-08T09:37:06;102460.22;;;6.96;100.00
19128;BME280;9696;53.686;10.094;2023-04-08T09:39:35;102453.59;;;6.89;100.00
19128;BME280;9696;53.686;10.094;2023-04-08T09:42:06;102463.13;;;6.90;100.00
19128;BME280;9696;53.686;10.094;2023-04-08T09:44:39;102464.91;;;7.08;100.00
19128;BME280;9696;53.686;10.094;2023-04-08T09:47:18;102464.31;;;6.83;100.00
19128;BME280;9696;53.686;10.094;2023-04-08T09:49:53;102463.97;;;6.70;100.00
19128;BME280;9696;53.686;10.094;2023-04-08T09:52:32;102462.13;;;6.52;100.00
19128;BME280;9696;53.686;10.094;2023-04-08T09:55:03;102465.72;;;6.70;100.00
19128;BME280;9696;53.686;10.094;2023-04-08T09:57:39;102461.50;;;6.67;100.00
19128;BME280;9696;53.686;10.094;2023-04-08T10:00:11;102464.06;;;6.27;100.00
19128;BME280;9696;53.686;10.094;2023-04-08T10:02:56;102474.53;;;6.67;100.00
19128;BME280;9696;53.686;10.094;2023-04-08T10:05:29;102467.50;;;6.69;100.00
19128;BME280;9696;53.686;10.094;2023-04-08T10:08:00;102466.91;;;6.62;100.00
19128;BME280;9696;53.686;10.094;2023-04-08T10:10:29;102467.53;;;6.27;100.00
19128;BME280;9696;53.686;10.094;2023-04-08T10:12:59;102467.84;;;6.20;100.00
19128;BME280;9696;53.686;10.094;2023-04-08T10:15:29;102468.00;;;6.15;100.00
19128;BME280;9696;53.686;10.094;2023-04-08T10:18:29;102462.34;;;6.47;100.00
19128;BME280;9696;53.686;10.094;2023-04-08T10:21:00;102473.78;;;6.23;100.00
19128;BME280;9696;53.686;10.094;2023-04-08T10:23:56;102473.72;;;6.45;100.00
19128;BME280;9696;53.686;10.094;2023-04-08T10:26:32;102469.03;;;6.53;100.00
19128;BME280;9696;53.686;10.094;2023-04-08T10:29:31;102472.41;;;6.35;100.00
19128;BME280;9696;53.686;10.094;2023-04-08T10:32:00;102473.81;;;6.43;100.00
19128;BME280;9696;53.686;10.094;2023-04-08T10:34:29;102470.94;;;6.49;100.00
19128;BME280;9696;53.686;10.094;2023-04-08T10:36:59;102472.75;;;6.27;100.00
19128;BME280;9696;53.686;10.094;2023-04-08T10:39:30;102469.94;;;6.52;100.00
19128;BME280;9696;53.686;10.094;2023-04-08T10:42:01;102471.31;;;6.40;100.00
19128;BME280;9696;53.686;10.094;2023-04-08T10:44:31;102467.56;;;6.47;100.00
19128;BME280;9696;53.686;10.094;2023-04-08T10:47:00;102463.13;;;6.70;100.00
19128;BME280;9696;53.686;10.094;2023-04-08T10:49:33;102472.66;;;6.71;100.00
19128;BME280;9696;53.686;10.094;2023-04-08T10:52:07;102474.97;;;6.77;100.00
19128;BME280;9696;53.686;10.094;2023-04-08T10:54:38;102472.44;;;6.55;100.00
19128;BME280;9696;53.686;10.094;2023-04-08T10:57:22;102480.34;;;6.74;100.00
19128;BME280;9696;53.686;10.094;2023-04-08T10:59:51;102475.31;;;6.69;100.00
19128;BME280;9696;53.686;10.094;2023-04-08T11:02:21;102482.47;;;6.84;100.00
19128;BME280;9696;53.686;10.094;2023-04-08T11:04:53;102479.16;;;6.60;100.00
19128;BME280;9696;53.686;10.094;2023-04-08T11:07:25;102474.34;;;6.51;100.00
19128;BME280;9696;53.686;10.094;2023-04-08T11:09:56;102475.69;;;6.60;100.00
19128;BME280;9696;53.686;10.094;2023-04-08T11:12:27;102477.91;;;6.49;100.00
19128;BME280;9696;53.686;10.094;2023-04-08T11:14:57;102487.91;;;6.59;100.00
19128;BME280;9696;53.686;10.094;2023-04-08T11:17:26;102489.56;;;6.60;100.00
19128;BME280;9696;53.686;10.094;2023-04-08T11:19:56;102479.22;;;6.39;100.00
19128;BME280;9696;53.686;10.094;2023-04-08T11:22:28;102483.91;;;6.51;100.00
19128;BME280;9696;53.686;10.094;2023-04-08T11:25:01;102488.66;;;6.61;100.00
19128;BME280;9696;53.686;10.094;2023-04-08T11:27:30;102483.00;;;6.72;100.00
19128;BME280;9696;53.686;10.094;2023-04-08T11:30:00;102483.94;;;6.71;100.00
19128;BME280;9696;53.686;10.094;2023-04-08T11:32:30;102477.22;;;6.66;100.00
19128;BME280;9696;53.686;10.094;2023-04-08T11:34:59;102478.63;;;6.73;100.00
19128;BME280;9696;53.686;10.094;2023-04-08T11:37:36;102475.69;;;6.80;100.00
19128;BME280;9696;53.686;10.094;2023-04-08T11:40:12;102483.00;;;6.72;100.00
19128;BME280;9696;53.686;10.094;2023-04-08T11:42:41;102478.81;;;6.88;100.00
19128;BME280;9696;53.686;10.094;2023-04-08T11:45:15;102477.66;;;6.95;100.00
19128;BME280;9696;53.686;10.094;2023-04-08T11:47:45;102477.97;;;6.88;100.00
19128;BME280;9696;53.686;10.094;2023-04-08T11:50:22;102474.50;;;7.07;100.00
19128;BME280;9696;53.686;10.094;2023-04-08T11:52:52;102474.72;;;7.03;100.00
19128;BME280;9696;53.686;10.094;2023-04-08T11:55:24;102478.47;;;7.16;100.00
19128;BME280;9696;53.686;10.094;2023-04-08T11:57:55;102486.41;;;6.94;100.00
19128;BME280;9696;53.686;10.094;2023-04-08T12:00:24;102482.97;;;7.13;100.00
19128;BME280;9696;53.686;10.094;2023-04-08T12:02:55;102485.97;;;7.03;100.00
19128;BME280;9696;53.686;10.094;2023-04-08T12:05:24;102480.75;;;7.03;100.00
19128;BME280;9696;53.686;10.094;2023-04-08T12:07:53;102487.50;;;6.89;100.00
19128;BME280;9696;53.686;10.094;2023-04-08T12:10:24;102489.25;;;6.88;100.00
19128;BME280;9696;53.686;10.094;2023-04-08T12:12:53;102496.66;;;6.79;100.00
19128;BME280;9696;53.686;10.094;2023-04-08T12:15:22;102503.19;;;7.07;100.00
19128;BME280;9696;53.686;10.094;2023-04-08T12:17:51;102504.19;;;7.05;100.00
19128;BME280;9696;53.686;10.094;2023-04-08T12:20:20;102502.28;;;7.08;100.00
19128;BME280;9696;53.686;10.094;2023-04-08T12:22:50;102501.34;;;7.11;100.00
19128;BME280;9696;53.686;10.094;2023-04-08T12:25:19;102501.44;;;6.88;100.00
19128;BME280;9696;53.686;10.094;2023-04-08T12:27:49;102498.78;;;7.09;100.00
19128;BME280;9696;53.686;10.094;2023-04-08T12:30:19;102497.81;;;6.92;100.00
19128;BME280;9696;53.686;10.094;2023-04-08T12:32:48;102495.19;;;6.92;100.00
19128;BME280;9696;53.686;10.094;2023-04-08T12:35:17;102497.34;;;7.02;100.00
19128;BME280;9696;53.686;10.094;2023-04-08T12:37:46;102492.00;;;7.05;100.00
19128;BME280;9696;53.686;10.094;2023-04-08T12:40:16;102494.78;;;7.21;100.00
19128;BME280;9696;53.686;10.094;2023-04-08T12:42:46;102488.53;;;7.44;100.00
19128;BME280;9696;53.686;10.094;2023-04-08T12:45:16;102502.63;;;7.40;100.00
19128;BME280;9696;53.686;10.094;2023-04-08T12:47:45;102500.56;;;7.28;100.00
19128;BME280;9696;53.686;10.094;2023-04-08T12:50:21;102502.22;;;7.30;100.00
19128;BME280;9696;53.686;10.094;2023-04-08T12:52:58;102499.16;;;7.00;100.00
19128;BME280;9696;53.686;10.094;2023-04-08T12:55:34;102504.53;;;6.97;100.00
19128;BME280;9696;53.686;10.094;2023-04-08T12:58:03;102503.00;;;7.12;100.00
19128;BME280;9696;53.686;10.094;2023-04-08T13:00:34;102500.63;;;6.87;100.00
19128;BME280;9696;53.686;10.094;2023-04-08T13:03:08;102508.41;;;7.28;100.00
19128;BME280;9696;53.686;10.094;2023-04-08T13:05:38;102511.94;;;7.27;100.00
19128;BME280;9696;53.686;10.094;2023-04-08T13:08:15;102509.88;;;7.15;100.00